Baltic Marshall — C4KD2 — position and weather

sailwx.info

Track history (hours):
 
Tides and Currents Weather Stations Pressure Air Temp Water Temp Dewpoint Dewpoint Depression Visibility Wind Speed Wind Dir Waves Ship Positions

Baltic Marshall

Last reported at 2014-Sep-22 16:28 UTC. Time now 2014-Sep-22 20:16 UTC.
Position N 52°11' E 003°34'.

Length 183 m; draft 7.2 m.

Type: Tanker. MMSI: 212118000.

Date/timePositionNaut miles runAvg speedWind from/ knotsBaromVisibWave heightAir tempDewpointWater temp
2014-Sep-22 16:28N 52°11' E 003°34'0 0.1
2014-Sep-22 15:31N 52°11' E 003°34'0 0.0
2014-Sep-22 14:31N 52°11' E 003°34'0 0.0
2014-Sep-22 13:31N 52°11' E 003°34'0 0.0
2014-Sep-21 23:31N 52°11' E 003°34'0 0.0
2014-Sep-21 22:28N 52°11' E 003°34'0 0.0
2014-Sep-21 21:31N 52°11' E 003°34'0 0.0
2014-Sep-21 20:31N 52°11' E 003°34'0 0.0
2014-Sep-21 10:07N 52°11' E 003°34'0 0.0
2014-Sep-21 06:10N 52°11' E 003°34'0 0.0
2014-Sep-21 04:10N 52°11' E 003°34'0 0.0
2014-Sep-20 22:04N 52°11' E 003°34'0 0.0
2014-Sep-20 20:16N 52°11' E 003°34'0 0.0
2014-Sep-20 19:28N 52°11' E 003°34'1 0.3
2014-Sep-20 16:30N 52°10' E 003°34'1111.1
2014-Sep-20 15:33N 52°04' E 003°49'1211.5
2014-Sep-20 14:33N 51°59' E 004°05'5 5.0
2014-Sep-20 13:32N 51°56' E 004°12'0 0.0
2014-Sep-20 12:29N 51°56' E 004°12'0 0.0
2014-Sep-20 11:32N 51°56' E 004°12'0 0.0
2014-Sep-20 10:32N 51°56' E 004°12'0 0.0
2014-Sep-20 09:32N 51°56' E 004°12'0 0.0
2014-Sep-20 08:32N 51°56' E 004°12'0 0.0
2014-Sep-20 07:32N 51°56' E 004°12'0 0.0
2014-Sep-20 06:32N 51°56' E 004°12'0 0.0
2014-Sep-20 05:29N 51°56' E 004°12'0 0.0
2014-Sep-20 04:29N 51°56' E 004°12'0 0.0
2014-Sep-20 03:26N 51°56' E 004°12'0 0.0
2014-Sep-20 02:32N 51°56' E 004°12'0 0.0
2014-Sep-20 01:32N 51°56' E 004°12'0 0.0
2014-Sep-20 00:32N 51°56' E 004°12'0 0.0
2014-Sep-19 23:32N 51°56' E 004°12'0 0.0
2014-Sep-19 22:32N 51°56' E 004°12'0 0.0
2014-Sep-19 21:32N 51°56' E 004°12'0 0.0
2014-Sep-19 20:32N 51°56' E 004°12'0 0.0
2014-Sep-19 19:29N 51°56' E 004°12'0 0.0
2014-Sep-19 18:32N 51°56' E 004°12'0 0.0
2014-Sep-19 17:32N 51°56' E 004°12'0 0.0
2014-Sep-19 16:29N 51°56' E 004°12'0 0.0
2014-Sep-19 15:29N 51°56' E 004°12'0 0.0
2014-Sep-19 14:32N 51°56' E 004°12'0 0.0
2014-Sep-19 13:32N 51°56' E 004°12'0 0.0
2014-Sep-19 12:29N 51°56' E 004°12'0 0.0
2014-Sep-19 11:32N 51°56' E 004°12'0 0.0
2014-Sep-19 10:32N 51°56' E 004°12'0 0.0
2014-Sep-19 09:29N 51°56' E 004°12'0 0.0
2014-Sep-19 08:32N 51°56' E 004°12'0 0.0
2014-Sep-19 07:32N 51°56' E 004°12'0 0.0
2014-Sep-19 06:32N 51°56' E 004°12'0 0.0
2014-Sep-19 05:32N 51°56' E 004°12'0 0.0
2014-Sep-19 04:23N 51°56' E 004°12'0 0.0
2014-Sep-19 03:32N 51°56' E 004°12'0 0.0
2014-Sep-19 02:32N 51°56' E 004°12'0 0.0
2014-Sep-19 01:32N 51°56' E 004°12'0 0.0
2014-Sep-19 00:32N 51°56' E 004°12'0 0.0
2014-Sep-18 23:32N 51°56' E 004°12'0 0.2
2014-Sep-18 22:33N 51°56' E 004°12'6 6.2
2014-Sep-18 21:33N 51°59' E 004°03'9 8.9
2014-Sep-18 20:33N 52°03' E 003°50'1212.1
2014-Sep-18 19:33N 52°07' E 003°31'1312.5
2014-Sep-18 18:32N 52°15' E 003°15'1912.6
2014-Sep-18 17:03N 52°29' E 002°55'713.4
2014-Sep-18 16:32N 52°35' E 003°00'1913.3
2014-Sep-18 15:08N 52°52' E 003°14'712.8
2014-Sep-18 14:33N 52°59' E 003°18'1212.4
2014-Sep-18 13:33N 53°11' E 003°24'34912.0
2014-Sep-17 08:32N 57°48' E 009°41'1313.1
2014-Sep-17 07:33N 57°49' E 010°05'1514.0
2014-Sep-17 06:29N 57°49' E 010°33'1111.3
2014-Sep-17 05:33N 57°45' E 010°51'1312.6
2014-Sep-17 04:33N 57°36' E 011°09'1312.7
2014-Sep-17 03:33N 57°28' E 011°26'1212.5
2014-Sep-17 02:33N 57°16' E 011°34'1212.2
2014-Sep-17 01:33N 57°04' E 011°41'1212.0
2014-Sep-17 00:33N 56°53' E 011°49'1111.2
2014-Sep-16 23:33N 56°42' E 011°50'1312.7
2014-Sep-16 22:33N 56°31' E 011°38'1312.3
2014-Sep-16 21:31N 56°20' E 011°26'1312.9
2014-Sep-16 20:31N 56°09' E 011°14'1313.1
2014-Sep-16 19:33N 55°58' E 011°02'8211.3
2014-Sep-16 12:17N 54°36' E 011°00'1013.0
2014-Sep-16 11:33N 54°34' E 011°17'1312.7
2014-Sep-16 10:33N 54°29' E 011°36'1212.4
2014-Sep-16 09:34N 54°26' E 011°57'1110.5
2014-Sep-16 08:33N 54°31' E 012°13'7 7.2
2014-Sep-16 07:33N 54°38' E 012°18'9 9.2
2014-Sep-16 06:33N 54°43' E 012°31'1111.1
2014-Sep-16 05:33N 54°48' E 012°48'1212.0
2014-Sep-16 04:34N 54°52' E 013°08'1212.4
2014-Sep-16 03:34N 54°56' E 013°28'1212.1
2014-Sep-16 02:33N 55°00' E 013°48'1211.5
2014-Sep-16 01:33N 55°05' E 014°07'1212.3
2014-Sep-16 00:33N 55°14' E 014°20'1212.4
2014-Sep-15 23:34N 55°24' E 014°33'1212.1
2014-Sep-15 22:34N 55°30' E 014°52'1212.2
2014-Sep-15 21:33N 55°36' E 015°11'1312.1
2014-Sep-15 20:30N 55°40' E 015°32'5012.1
2014-Sep-15 16:23N 55°52' E 016°58'1012.1
2014-Sep-15 15:33N 55°55' E 017°15'2612.1
2014-Sep-15 13:26N 56°05' E 017°58'1112.3
2014-Sep-15 12:30N 56°11' E 018°15'1212.4
2014-Sep-15 11:33N 56°17' E 018°33'1612.1
2014-Sep-15 10:14N 56°29' E 018°52'2112.6
2014-Sep-15 08:33N 56°48' E 019°11'21212.2
2014-Sep-14 15:06N 59°37' E 023°15'712.4
2014-Sep-14 14:33N 59°39' E 023°28'1212.4
2014-Sep-14 13:33N 59°42' E 023°51'1312.5
2014-Sep-14 12:32N 59°46' E 024°15'1312.4
2014-Sep-14 11:31N 59°49' E 024°40'4912.2
2014-Sep-14 07:32N 59°59' E 026°15'1212.2
2014-Sep-14 06:34N 60°01' E 026°38'  
Track history (hours):
 
Tides and Currents Weather Stations Pressure Air Temp Water Temp Dewpoint Dewpoint Depression Visibility Wind Speed Wind Dir Waves Ship Positions

Baltic Marshall

Last reported at 2014-Sep-22 16:28 UTC. Time now 2014-Sep-22 20:16 UTC.
Position N 52°11' E 003°34'.

Length 183 m; draft 7.2 m.

Type: Tanker. MMSI: 212118000.

Date/timePositionNaut miles runAvg speedWind from/ knotsBaromVisibWave heightAir tempDewpointWater temp
2014-Sep-22 16:28N 52°11' E 003°34'0 0.1
2014-Sep-22 15:31N 52°11' E 003°34'0 0.0
2014-Sep-22 14:31N 52°11' E 003°34'0 0.0
2014-Sep-22 13:31N 52°11' E 003°34'0 0.0
2014-Sep-21 23:31N 52°11' E 003°34'0 0.0
2014-Sep-21 22:28N 52°11' E 003°34'0 0.0
2014-Sep-21 21:31N 52°11' E 003°34'0 0.0
2014-Sep-21 20:31N 52°11' E 003°34'0 0.0
2014-Sep-21 10:07N 52°11' E 003°34'0 0.0
2014-Sep-21 06:10N 52°11' E 003°34'0 0.0
2014-Sep-21 04:10N 52°11' E 003°34'0 0.0
2014-Sep-20 22:04N 52°11' E 003°34'0 0.0
2014-Sep-20 20:16N 52°11' E 003°34'0 0.0
2014-Sep-20 19:28N 52°11' E 003°34'1 0.3
2014-Sep-20 16:30N 52°10' E 003°34'1111.1
2014-Sep-20 15:33N 52°04' E 003°49'1211.5
2014-Sep-20 14:33N 51°59' E 004°05'5 5.0
2014-Sep-20 13:32N 51°56' E 004°12'0 0.0
2014-Sep-20 12:29N 51°56' E 004°12'0 0.0
2014-Sep-20 11:32N 51°56' E 004°12'0 0.0
2014-Sep-20 10:32N 51°56' E 004°12'0 0.0
2014-Sep-20 09:32N 51°56' E 004°12'0 0.0
2014-Sep-20 08:32N 51°56' E 004°12'0 0.0
2014-Sep-20 07:32N 51°56' E 004°12'0 0.0
2014-Sep-20 06:32N 51°56' E 004°12'0 0.0
2014-Sep-20 05:29N 51°56' E 004°12'0 0.0
2014-Sep-20 04:29N 51°56' E 004°12'0 0.0
2014-Sep-20 03:26N 51°56' E 004°12'0 0.0
2014-Sep-20 02:32N 51°56' E 004°12'0 0.0
2014-Sep-20 01:32N 51°56' E 004°12'0 0.0
2014-Sep-20 00:32N 51°56' E 004°12'0 0.0
2014-Sep-19 23:32N 51°56' E 004°12'0 0.0
2014-Sep-19 22:32N 51°56' E 004°12'0 0.0
2014-Sep-19 21:32N 51°56' E 004°12'0 0.0
2014-Sep-19 20:32N 51°56' E 004°12'0 0.0
2014-Sep-19 19:29N 51°56' E 004°12'0 0.0
2014-Sep-19 18:32N 51°56' E 004°12'0 0.0
2014-Sep-19 17:32N 51°56' E 004°12'0 0.0
2014-Sep-19 16:29N 51°56' E 004°12'0 0.0
2014-Sep-19 15:29N 51°56' E 004°12'0 0.0
2014-Sep-19 14:32N 51°56' E 004°12'0 0.0
2014-Sep-19 13:32N 51°56' E 004°12'0 0.0
2014-Sep-19 12:29N 51°56' E 004°12'0 0.0
2014-Sep-19 11:32N 51°56' E 004°12'0 0.0
2014-Sep-19 10:32N 51°56' E 004°12'0 0.0
2014-Sep-19 09:29N 51°56' E 004°12'0 0.0
2014-Sep-19 08:32N 51°56' E 004°12'0 0.0
2014-Sep-19 07:32N 51°56' E 004°12'0 0.0
2014-Sep-19 06:32N 51°56' E 004°12'0 0.0
2014-Sep-19 05:32N 51°56' E 004°12'0 0.0
2014-Sep-19 04:23N 51°56' E 004°12'0 0.0
2014-Sep-19 03:32N 51°56' E 004°12'0 0.0
2014-Sep-19 02:32N 51°56' E 004°12'0 0.0
2014-Sep-19 01:32N 51°56' E 004°12'0 0.0
2014-Sep-19 00:32N 51°56' E 004°12'0 0.0
2014-Sep-18 23:32N 51°56' E 004°12'0 0.2
2014-Sep-18 22:33N 51°56' E 004°12'6 6.2
2014-Sep-18 21:33N 51°59' E 004°03'9 8.9
2014-Sep-18 20:33N 52°03' E 003°50'1212.1
2014-Sep-18 19:33N 52°07' E 003°31'1312.5
2014-Sep-18 18:32N 52°15' E 003°15'1912.6
2014-Sep-18 17:03N 52°29' E 002°55'713.4
2014-Sep-18 16:32N 52°35' E 003°00'1913.3
2014-Sep-18 15:08N 52°52' E 003°14'712.8
2014-Sep-18 14:33N 52°59' E 003°18'1212.4
2014-Sep-18 13:33N 53°11' E 003°24'34912.0
2014-Sep-17 08:32N 57°48' E 009°41'1313.1
2014-Sep-17 07:33N 57°49' E 010°05'1514.0
2014-Sep-17 06:29N 57°49' E 010°33'1111.3
2014-Sep-17 05:33N 57°45' E 010°51'1312.6
2014-Sep-17 04:33N 57°36' E 011°09'1312.7
2014-Sep-17 03:33N 57°28' E 011°26'1212.5
2014-Sep-17 02:33N 57°16' E 011°34'1212.2
2014-Sep-17 01:33N 57°04' E 011°41'1212.0
2014-Sep-17 00:33N 56°53' E 011°49'1111.2
2014-Sep-16 23:33N 56°42' E 011°50'1312.7
2014-Sep-16 22:33N 56°31' E 011°38'1312.3
2014-Sep-16 21:31N 56°20' E 011°26'1312.9
2014-Sep-16 20:31N 56°09' E 011°14'1313.1
2014-Sep-16 19:33N 55°58' E 011°02'8211.3
2014-Sep-16 12:17N 54°36' E 011°00'1013.0
2014-Sep-16 11:33N 54°34' E 011°17'1312.7
2014-Sep-16 10:33N 54°29' E 011°36'1212.4
2014-Sep-16 09:34N 54°26' E 011°57'1110.5
2014-Sep-16 08:33N 54°31' E 012°13'7 7.2
2014-Sep-16 07:33N 54°38' E 012°18'9 9.2
2014-Sep-16 06:33N 54°43' E 012°31'1111.1
2014-Sep-16 05:33N 54°48' E 012°48'1212.0
2014-Sep-16 04:34N 54°52' E 013°08'1212.4
2014-Sep-16 03:34N 54°56' E 013°28'1212.1
2014-Sep-16 02:33N 55°00' E 013°48'1211.5
2014-Sep-16 01:33N 55°05' E 014°07'1212.3
2014-Sep-16 00:33N 55°14' E 014°20'1212.4
2014-Sep-15 23:34N 55°24' E 014°33'1212.1
2014-Sep-15 22:34N 55°30' E 014°52'1212.2
2014-Sep-15 21:33N 55°36' E 015°11'1312.1
2014-Sep-15 20:30N 55°40' E 015°32'5012.1
2014-Sep-15 16:23N 55°52' E 016°58'1012.1
2014-Sep-15 15:33N 55°55' E 017°15'2612.1
2014-Sep-15 13:26N 56°05' E 017°58'1112.3
2014-Sep-15 12:30N 56°11' E 018°15'1212.4
2014-Sep-15 11:33N 56°17' E 018°33'1612.1
2014-Sep-15 10:14N 56°29' E 018°52'2112.6
2014-Sep-15 08:33N 56°48' E 019°11'21212.2
2014-Sep-14 15:06N 59°37' E 023°15'712.4
2014-Sep-14 14:33N 59°39' E 023°28'1212.4
2014-Sep-14 13:33N 59°42' E 023°51'1312.5
2014-Sep-14 12:32N 59°46' E 024°15'1312.4
2014-Sep-14 11:31N 59°49' E 024°40'4912.2
2014-Sep-14 07:32N 59°59' E 026°15'1212.2
2014-Sep-14 06:34N 60°01' E 026°38'  

Dump ship's entire track history